Weather reports worldwide

Advertisment
Großer Arber, Germany (10791): temperature & dewpoint: 10.09.2019 05:00:00 - 16.09.2019 05:00:00 (CEST)Großer Arber, Germany (10791): wind speed & gusts: 10.09.2019 05:00:00 - 16.09.2019 05:00:00 (CEST)Großer Arber, Germany (10791): wind direction: 10.09.2019 05:00:00 - 16.09.2019 05:00:00 (CEST)Großer Arber, Germany (10791): visibility: 10.09.2019 05:00:00 - 16.09.2019 05:00:00 (CEST)Großer Arber, Germany (10791): sunshine duration: 10.09.2019 05:00:00 - 16.09.2019 05:00:00 (CEST)Großer Arber, Germany (10791): precipitation: 10.09.2019 05:00:00 - 16.09.2019 05:00:00 (CEST)
Date & Time tt [°C] td [°C] ff [km/h] ff [kn] fx [km/h] fx [kn] dd vv [km] sd [min] rr [mm]
16.09.2019 05:00:00 - - - - - - - - - -
16.09.2019 04:00:00 11,7 0,2 27 15 38 21 WNW 75 0 0,0
16.09.2019 03:00:00 11,4 4,3 29 16 41 22 W 75 0 0,0
16.09.2019 02:00:00 11,8 6,7 29 16 41 22 W 70 0 0,0
16.09.2019 01:00:00 12,2 9,6 30 16 41 22 W 43 0 0,0
16.09.2019 00:00:00 12,6 10,0 33 18 46 25 W 43 0 0,0
15.09.2019 23:00:00 13,0 11,3 38 20 49 26 WSW 20 0 0,0
15.09.2019 22:00:00 12,8 10,1 38 20 46 25 WSW 43 0 0,0
15.09.2019 21:00:00 12,5 10,3 31 17 37 20 SW 27 0 0,0
15.09.2019 20:00:00 12,5 10,5 30 16 35 19 SW 24 23 0,0
15.09.2019 19:00:00 13,5 10,0 23 12 34 19 SW 40 60 0,0
15.09.2019 18:00:00 14,7 9,2 23 12 31 17 SW 56 60 0,0
15.09.2019 17:00:00 15,7 8,1 21 11 30 16 SW 55 60 0,0
15.09.2019 16:00:00 16,0 10,2 16 9 27 15 SSW 53 60 0,0
15.09.2019 15:00:00 16,5 11,2 14 8 28 15 SSW 58 60 0,0
15.09.2019 14:00:00 15,8 8,4 15 8 26 14 SW 75 60 0,0
15.09.2019 13:00:00 14,7 10,3 14 7 23 12 SW 58 60 0,0
15.09.2019 12:00:00 13,6 10,0 14 8 25 13 SW 64 60 0,0
15.09.2019 11:00:00 12,4 9,7 13 7 20 11 SSW 37 60 0,0
15.09.2019 10:00:00 11,5 9,3 14 7 18 10 SSW 20 59 0,0
15.09.2019 09:00:00 10,8 9,3 14 8 21 11 SW 9 60 0,0
15.09.2019 08:00:00 9,6 8,7 15 8 21 11 SW 8 35 0,0
15.09.2019 07:00:00 8,8 8,4 16 9 22 12 SSW 4,7 0 0,0
15.09.2019 06:00:00 8,8 8,5 15 8 19 10 SSW 0,6 0 0,0
15.09.2019 05:00:00 9,1 8,8 14 7 19 10 SW 2,5 0 0,0
15.09.2019 04:00:00 9,1 8,9 14 7 19 10 SSW 0,8 0 0,0
15.09.2019 03:00:00 9,2 9,0 12 7 21 11 SSW 1,9 0 0,0
15.09.2019 02:00:00 9,6 9,4 14 7 23 12 SSW 0,1 0 0,0
15.09.2019 01:00:00 9,4 9,2 12 6 19 10 SSW 0,2 0 0,0
15.09.2019 00:00:00 9,8 9,4 14 8 20 11 SW 3,2 0 0,0
14.09.2019 23:00:00 10,2 9,6 15 8 20 11 SW 8 0 0,0
14.09.2019 22:00:00 10,2 9,5 13 7 18 10 SSW 13 0 0,0
14.09.2019 21:00:00 10,4 9,7 14 7 19 11 S 16 0 0,0
14.09.2019 20:00:00 10,3 9,4 12 7 16 9 S 21 5 0,0
14.09.2019 19:00:00 10,7 9,5 7 4 10 6 E 19 0 0,0
14.09.2019 18:00:00 11,6 9,3 6 3 11 6 NW 35 1 0,0
14.09.2019 17:00:00 11,7 9,1 6 3 16 9 E 23 41 0,0
14.09.2019 16:00:00 12,2 9,7 10 5 17 9 NE 38 16 0,0
14.09.2019 15:00:00 11,5 9,3 10 5 17 9 NNE 28 15 0,0
14.09.2019 14:00:00 11,8 9,5 6 3 16 9 N 36 0 0,0
14.09.2019 13:00:00 12,2 9,9 10 5 18 10 NNW 36 16 0,0
14.09.2019 12:00:00 12,8 9,4 4 2 15 8 N 64 30 0,0
14.09.2019 11:00:00 10,4 8,2 7 4 14 8 E 32 23 0,0
14.09.2019 10:00:00 9,2 7,6 9 5 16 8 E 22 14 0,0
14.09.2019 09:00:00 8,4 8,0 10 6 15 8 ENE 0,3 2 0,0
14.09.2019 08:00:00 9,0 8,7 7 4 15 8 E 2,4 1 0,0
14.09.2019 07:00:00 9,1 9,0 10 6 20 11 E - 0 0,0
14.09.2019 06:00:00 9,3 9,2 11 6 19 10 ENE - 0 0,0
14.09.2019 05:00:00 9,7 9,6 11 6 21 11 ENE - 0 0,0
14.09.2019 04:00:00 10,0 9,8 11 6 19 10 NE - 0 0,0
14.09.2019 03:00:00 10,4 10,2 10 5 16 9 NE - 0 0,0
14.09.2019 02:00:00 10,4 10,2 9 5 12 7 N 0,1 0 0,0
14.09.2019 01:00:00 10,6 10,4 10 5 18 10 NNW 0,1 0 0,0
14.09.2019 00:00:00 10,7 10,4 13 7 17 9 NW 2,3 0 0,0
13.09.2019 23:00:00 10,9 10,7 11 6 14 8 NW - 0 0,0
13.09.2019 22:00:00 11,2 11,0 10 6 19 10 NW 0,1 0 0,0
13.09.2019 21:00:00 11,2 10,8 15 8 24 13 NW 3,3 0 0,0
13.09.2019 20:00:00 11,5 10,5 19 10 26 14 W 19 0 0,0
13.09.2019 19:00:00 11,7 10,2 16 8 22 12 W 42 0 0,0
13.09.2019 18:00:00 11,9 10,5 14 8 20 11 W 32 4 0,0
13.09.2019 17:00:00 12,7 10,3 14 7 27 15 W 73 5 0,0
13.09.2019 16:00:00 12,2 10,0 16 8 27 14 W 46 0 0,0
13.09.2019 15:00:00 11,7 10,2 18 10 32 17 WNW 37 0 0,0
13.09.2019 14:00:00 12,5 10,2 21 12 36 19 W 45 5 0,0
13.09.2019 13:00:00 12,3 9,2 26 14 44 24 W 56 17 0,0
13.09.2019 12:00:00 11,0 9,9 31 17 43 23 W 14 1 0,0
13.09.2019 11:00:00 10,8 10,4 25 13 51 27 W 0,7 3 0,0
13.09.2019 10:00:00 10,7 10,1 35 19 49 26 WSW 0,4 3 0,0
13.09.2019 09:00:00 10,3 10,1 32 17 48 26 WSW 0,1 1 0,0
13.09.2019 08:00:00 10,2 10,1 29 16 39 21 WSW - 0 0,0
13.09.2019 07:00:00 10,1 9,9 25 13 36 19 WSW - 0 0,0
13.09.2019 06:00:00 10,1 10,0 27 15 40 21 W - 0 0,0
13.09.2019 05:00:00 10,0 9,8 26 14 37 20 W 0,1 0 0,0
13.09.2019 04:00:00 10,2 9,7 25 14 33 18 W 7 0 0,0
13.09.2019 03:00:00 10,2 9,2 29 15 36 19 W 26 0 0,0
13.09.2019 02:00:00 10,6 9,2 27 14 35 19 W 41 0 0,0
13.09.2019 01:00:00 10,7 9,1 31 17 40 21 W 32 0 0,0
13.09.2019 00:00:00 10,4 8,9 30 16 36 20 W 42 0 0,0
12.09.2019 23:00:00 10,4 8,7 26 14 37 20 W 31 0 0,0
12.09.2019 22:00:00 10,6 8,6 29 16 37 20 W 38 0 0,0
12.09.2019 21:00:00 10,7 8,5 28 15 36 19 WSW 49 0 0,0
12.09.2019 20:00:00 10,4 8,5 29 16 34 19 WSW 46 21 0,0
12.09.2019 19:00:00 11,0 8,9 22 12 30 16 WSW 44 18 0,0
12.09.2019 18:00:00 11,0 9,8 18 10 25 13 SW 14 1 0,0
12.09.2019 17:00:00 11,0 9,3 16 8 28 15 SW 20 1 0,0
12.09.2019 16:00:00 11,1 8,6 20 11 41 22 WSW 36 12 0,0
12.09.2019 15:00:00 13,1 8,5 26 14 39 21 SW 56 51 0,0
12.09.2019 14:00:00 12,2 7,4 20 11 38 21 W 53 51 0,0
12.09.2019 13:00:00 10,2 7,0 27 14 39 21 WSW 43 53 0,0
12.09.2019 12:00:00 10,5 7,1 27 15 44 24 W 39 26 0,0
12.09.2019 11:00:00 8,2 6,6 32 18 44 24 WSW 5 0 0,0
12.09.2019 10:00:00 8,0 6,8 32 18 48 26 WSW 16 5 0,0
12.09.2019 09:00:00 7,2 6,2 35 19 53 29 WSW 18 0 0,0
12.09.2019 08:00:00 6,4 6,2 39 21 61 33 WSW 0,1 0 0,0
12.09.2019 07:00:00 6,3 5,2 42 23 56 30 WSW 14 0 0,0
12.09.2019 06:00:00 6,8 4,4 40 21 54 29 W 32 0 0,0
12.09.2019 05:00:00 6,9 3,7 38 20 51 27 WSW 40 0 0,0
12.09.2019 04:00:00 7,2 3,3 39 21 49 26 WSW 43 0 0,0
12.09.2019 03:00:00 7,6 3,9 34 18 46 25 W 35 0 0,0
12.09.2019 02:00:00 7,8 3,4 33 18 40 22 W 40 0 0,0
12.09.2019 01:00:00 8,1 5,1 30 16 39 21 WSW 29 0 0,0
12.09.2019 00:00:00 8,4 4,9 26 14 36 19 WSW 37 0 0,0
11.09.2019 23:00:00 8,7 5,2 29 15 33 18 W 39 0 0,0
11.09.2019 22:00:00 8,7 5,7 23 12 28 15 W 36 0 0,0
11.09.2019 21:00:00 8,8 5,5 17 9 22 12 W 42 0 0,0
11.09.2019 20:00:00 9,0 6,9 15 8 22 12 W 28 23 0,0
11.09.2019 19:00:00 10,5 7,5 14 8 21 12 W 34 50 0,0
11.09.2019 18:00:00 11,8 8,5 8 4 16 9 SW 49 17 0,0
11.09.2019 17:00:00 12,8 7,9 10 6 18 10 SW 45 52 0,0
11.09.2019 16:00:00 12,9 7,0 9 5 19 10 S 53 55 0,0
11.09.2019 15:00:00 12,5 8,4 9 5 25 13 SW 75 30 0,0
11.09.2019 14:00:00 14,3 8,9 6 3 19 10 W 75 60 0,0
11.09.2019 13:00:00 12,9 9,1 4 2 13 7 NW 75 36 0,0
11.09.2019 12:00:00 12,2 6,7 4 2 11 6 SW 63 21 0,0
11.09.2019 11:00:00 12,1 1,8 7 4 10 5 SSW 75 47 0,0
11.09.2019 10:00:00 11,0 0,2 5 3 7 4 SSW 75 5 0,0
11.09.2019 09:00:00 10,9 -1,3 4 2 7 4 S 68 0 0,0
11.09.2019 08:00:00 10,3 -1,8 5 3 7 4 W 75 0 0,0
11.09.2019 07:00:00 10,4 -2,5 7 4 8 4 S 75 0 0,0
11.09.2019 06:00:00 9,8 -5,0 3 2 14 7 SW 75 0 0,0
11.09.2019 05:00:00 8,9 5,4 10 5 19 10 SSW 58 0 0,0
11.09.2019 04:00:00 8,6 6,1 16 9 22 12 S 63 0 0,0
11.09.2019 03:00:00 8,3 5,2 18 10 22 12 S 68 0 0,0
11.09.2019 02:00:00 8,6 4,0 16 9 20 11 S 75 0 0,0
11.09.2019 01:00:00 7,9 4,7 14 8 18 10 SSE 68 0 0,0
11.09.2019 00:00:00 8,3 4,6 14 8 17 9 SE 75 0 0,0
10.09.2019 23:00:00 8,1 5,9 13 7 17 9 ESE 46 0 0,0
10.09.2019 22:00:00 7,6 6,4 15 8 16 9 E 22 0 0,0
10.09.2019 21:00:00 7,6 6,7 12 7 17 9 E 15 0 0,0
10.09.2019 20:00:00 8,0 7,0 10 5 16 9 ENE 18 26 0,0
10.09.2019 19:00:00 9,2 4,2 6 3 11 6 ESE 72 56 0,0
10.09.2019 18:00:00 10,5 3,7 4 2 12 7 S 67 59 0,0
10.09.2019 17:00:00 10,4 4,0 7 4 14 8 SSE 64 60 0,0
10.09.2019 16:00:00 11,4 4,0 7 4 21 12 S 75 57 0,0
10.09.2019 15:00:00 10,4 3,8 12 7 21 11 SW 73 53 0,0
10.09.2019 14:00:00 11,6 5,3 8 5 18 10 S 60 58 0,0
10.09.2019 13:00:00 10,6 5,9 9 5 28 15 SW 49 59 0,0
10.09.2019 12:00:00 9,5 3,5 8 4 15 8 S 54 56 0,0
10.09.2019 11:00:00 8,5 2,4 6 3 12 6 SSW 40 60 0,0
10.09.2019 10:00:00 7,3 3,1 8 5 15 8 SSW 62 60 0,0
10.09.2019 09:00:00 6,1 2,2 10 5 14 8 S 50 60 0,0
10.09.2019 08:00:00 4,8 2,0 10 5 14 7 S 69 42 0,0
10.09.2019 07:00:00 3,8 1,8 10 5 16 9 WSW 66 0 0,0
10.09.2019 06:00:00 3,4 2,2 16 8 24 13 SW 52 0 0,0
10.09.2019 05:00:00 3,4 3,2 20 11 24 13 SW 0,2 0 0,0

tt = temperature
td = dewpoint
ff = wind speed
fx = gusts
dd = wind direction
vv = visibility
sd = sunshine duration
rr = precipitation

Next stations